sensor_id;sensor_type;location;lat;lon;timestamp;pressure;altitude;pressure_sealevel;temperature;humidity
77011;BME280;65945;53.148;17.956;2023-05-23T00:01:46;101039.10;;;10.85;69.72
77011;BME280;65945;53.148;17.956;2023-05-23T00:04:13;101038.63;;;10.81;69.83
77011;BME280;65945;53.148;17.956;2023-05-23T00:06:42;101040.08;;;10.79;70.08
77011;BME280;65945;53.148;17.956;2023-05-23T00:09:13;101043.05;;;10.75;70.10
77011;BME280;65945;53.148;17.956;2023-05-23T00:11:40;101038.95;;;10.71;70.20
77011;BME280;65945;53.148;17.956;2023-05-23T00:14:11;101035.80;;;10.68;70.49
77011;BME280;65945;53.148;17.956;2023-05-23T00:16:40;101037.32;;;10.64;70.74
77011;BME280;65945;53.148;17.956;2023-05-23T00:19:07;101033.61;;;10.60;70.84
77011;BME280;65945;53.148;17.956;2023-05-23T00:21:33;101031.02;;;10.58;71.15
77011;BME280;65945;53.148;17.956;2023-05-23T00:24:00;101029.21;;;10.54;71.19
77011;BME280;65945;53.148;17.956;2023-05-23T00:26:31;101031.58;;;10.50;71.40
77011;BME280;65945;53.148;17.956;2023-05-23T00:28:57;101030.38;;;10.46;71.53
77011;BME280;65945;53.148;17.956;2023-05-23T00:31:24;101026.94;;;10.43;71.55
77011;BME280;65945;53.148;17.956;2023-05-23T00:33:51;101026.30;;;10.40;72.12
77011;BME280;65945;53.148;17.956;2023-05-23T00:36:18;101027.02;;;10.36;72.12
77011;BME280;65945;53.148;17.956;2023-05-23T00:38:44;101022.17;;;10.32;72.27
77011;BME280;65945;53.148;17.956;2023-05-23T00:41:11;101017.80;;;10.28;72.65
77011;BME280;65945;53.148;17.956;2023-05-23T00:43:38;101017.21;;;10.26;72.34
77011;BME280;65945;53.148;17.956;2023-05-23T00:46:05;101015.14;;;10.24;72.43
77011;BME280;65945;53.148;17.956;2023-05-23T00:48:32;101015.80;;;10.22;72.32
77011;BME280;65945;53.148;17.956;2023-05-23T00:50:59;101013.75;;;10.20;72.68
77011;BME280;65945;53.148;17.956;2023-05-23T00:53:26;101010.56;;;10.19;72.65
77011;BME280;65945;53.148;17.956;2023-05-23T00:55:53;101012.17;;;10.16;72.90
77011;BME280;65945;53.148;17.956;2023-05-23T00:58:19;101011.02;;;10.13;73.28
77011;BME280;65945;53.148;17.956;2023-05-23T01:00:46;101006.41;;;10.10;73.33
77011;BME280;65945;53.148;17.956;2023-05-23T01:03:15;101006.61;;;10.07;73.24
77011;BME280;65945;53.148;17.956;2023-05-23T01:05:43;101007.23;;;10.05;73.44
77011;BME280;65945;53.148;17.956;2023-05-23T01:08:10;101010.66;;;10.02;73.46
77011;BME280;65945;53.148;17.956;2023-05-23T01:10:37;101011.17;;;9.98;73.45
77011;BME280;65945;53.148;17.956;2023-05-23T01:14:00;101008.89;;;9.96;73.40
77011;BME280;65945;53.148;17.956;2023-05-23T01:16:46;101014.45;;;9.93;73.87
77011;BME280;65945;53.148;17.956;2023-05-23T01:19:47;101014.13;;;9.88;73.60
77011;BME280;65945;53.148;17.956;2023-05-23T01:28:30;101008.37;;;9.71;73.97
77011;BME280;65945;53.148;17.956;2023-05-23T01:30:59;101010.50;;;9.67;74.44
77011;BME280;65945;53.148;17.956;2023-05-23T01:33:28;101009.89;;;9.61;74.47
77011;BME280;65945;53.148;17.956;2023-05-23T01:35:57;101008.95;;;9.56;74.70
77011;BME280;65945;53.148;17.956;2023-05-23T01:38:27;101012.80;;;9.52;74.60
77011;BME280;65945;53.148;17.956;2023-05-23T01:40:53;101011.09;;;9.49;74.66
77011;BME280;65945;53.148;17.956;2023-05-23T01:43:21;101006.18;;;9.46;75.46
77011;BME280;65945;53.148;17.956;2023-05-23T01:45:53;101008.65;;;9.42;75.14
77011;BME280;65945;53.148;17.956;2023-05-23T01:48:23;101007.03;;;9.39;75.71
77011;BME280;65945;53.148;17.956;2023-05-23T01:50:52;101002.30;;;9.34;75.49
77011;BME280;65945;53.148;17.956;2023-05-23T01:53:22;101004.47;;;9.30;75.22
77011;BME280;65945;53.148;17.956;2023-05-23T01:55:50;101003.42;;;9.29;75.24
77011;BME280;65945;53.148;17.956;2023-05-23T01:58:17;100999.70;;;9.27;75.66
77011;BME280;65945;53.148;17.956;2023-05-23T02:00:45;100994.54;;;9.23;75.41
77011;BME280;65945;53.148;17.956;2023-05-23T02:03:12;100995.36;;;9.20;75.74
77011;BME280;65945;53.148;17.956;2023-05-23T02:05:39;100994.04;;;9.15;75.64
77011;BME280;65945;53.148;17.956;2023-05-23T02:08:06;100992.23;;;9.11;75.95
77011;BME280;65945;53.148;17.956;2023-05-23T02:10:33;100986.91;;;9.07;76.17
77011;BME280;65945;53.148;17.956;2023-05-23T02:13:00;100986.61;;;9.03;76.36
77011;BME280;65945;53.148;17.956;2023-05-23T02:15:28;100988.17;;;8.99;76.42
77011;BME280;65945;53.148;17.956;2023-05-23T02:17:54;100987.36;;;8.95;76.35
77011;BME280;65945;53.148;17.956;2023-05-23T02:20:21;100986.97;;;8.93;76.43
77011;BME280;65945;53.148;17.956;2023-05-23T02:22:48;100988.85;;;8.90;76.59
77011;BME280;65945;53.148;17.956;2023-05-23T02:25:14;100987.40;;;8.87;76.55
77011;BME280;65945;53.148;17.956;2023-05-23T02:27:41;100983.48;;;8.84;76.92
77011;BME280;65945;53.148;17.956;2023-05-23T02:30:08;100981.55;;;8.81;77.09
77011;BME280;65945;53.148;17.956;2023-05-23T02:32:35;100980.23;;;8.79;76.78
77011;BME280;65945;53.148;17.956;2023-05-23T02:35:03;100977.78;;;8.78;77.04
77011;BME280;65945;53.148;17.956;2023-05-23T02:37:30;100977.45;;;8.77;77.53
77011;BME280;65945;53.148;17.956;2023-05-23T02:39:57;100980.13;;;8.77;77.21
77011;BME280;65945;53.148;17.956;2023-05-23T02:42:24;100979.52;;;8.77;77.45
77011;BME280;65945;53.148;17.956;2023-05-23T02:44:51;100980.91;;;8.78;77.94
77011;BME280;65945;53.148;17.956;2023-05-23T02:47:18;100977.34;;;8.78;77.88
77011;BME280;65945;53.148;17.956;2023-05-23T02:49:45;100974.12;;;8.80;77.51
77011;BME280;65945;53.148;17.956;2023-05-23T02:52:12;100971.11;;;8.81;77.72
77011;BME280;65945;53.148;17.956;2023-05-23T02:54:39;100968.77;;;8.81;77.86
77011;BME280;65945;53.148;17.956;2023-05-23T02:57:06;100964.88;;;8.81;78.23
77011;BME280;65945;53.148;17.956;2023-05-23T02:59:35;100962.83;;;8.82;78.34
77011;BME280;65945;53.148;17.956;2023-05-23T03:02:02;100961.27;;;8.83;78.21
77011;BME280;65945;53.148;17.956;2023-05-23T03:04:28;100951.92;;;8.86;78.09
77011;BME280;65945;53.148;17.956;2023-05-23T03:06:55;100954.46;;;8.89;77.73
77011;BME280;65945;53.148;17.956;2023-05-23T03:09:25;100955.34;;;8.93;77.70
77011;BME280;65945;53.148;17.956;2023-05-23T03:11:52;100962.14;;;8.98;77.74
77011;BME280;65945;53.148;17.956;2023-05-23T03:14:19;100961.05;;;9.06;77.81
77011;BME280;65945;53.148;17.956;2023-05-23T03:16:45;100963.08;;;9.15;77.36
77011;BME280;65945;53.148;17.956;2023-05-23T03:19:12;100960.07;;;9.23;77.53
77011;BME280;65945;53.148;17.956;2023-05-23T03:21:39;100958.30;;;9.32;77.35
77011;BME280;65945;53.148;17.956;2023-05-23T03:24:07;100960.00;;;9.42;77.31
77011;BME280;65945;53.148;17.956;2023-05-23T03:26:34;100958.30;;;9.52;77.27
77011;BME280;65945;53.148;17.956;2023-05-23T03:29:00;100958.29;;;9.59;77.05
77011;BME280;65945;53.148;17.956;2023-05-23T03:31:27;100957.14;;;9.66;77.08
77011;BME280;65945;53.148;17.956;2023-05-23T03:33:54;100958.30;;;9.71;77.05
77011;BME280;65945;53.148;17.956;2023-05-23T03:36:20;100959.99;;;9.77;76.86
77011;BME280;65945;53.148;17.956;2023-05-23T03:38:52;100959.16;;;9.87;76.33
77011;BME280;65945;53.148;17.956;2023-05-23T03:41:18;100956.87;;;9.98;76.53
77011;BME280;65945;53.148;17.956;2023-05-23T03:43:45;100955.92;;;10.07;76.29
77011;BME280;65945;53.148;17.956;2023-05-23T03:46:13;100951.83;;;10.16;76.32
77011;BME280;65945;53.148;17.956;2023-05-23T03:48:41;100951.19;;;10.26;76.27
77011;BME280;65945;53.148;17.956;2023-05-23T03:51:09;100949.98;;;10.37;76.03
77011;BME280;65945;53.148;17.956;2023-05-23T03:53:36;100949.90;;;10.49;75.97
77011;BME280;65945;53.148;17.956;2023-05-23T03:56:04;100950.64;;;10.65;75.65
77011;BME280;65945;53.148;17.956;2023-05-23T03:58:31;100948.74;;;10.83;75.45
77011;BME280;65945;53.148;17.956;2023-05-23T04:01:01;100949.33;;;11.00;75.34
77011;BME280;65945;53.148;17.956;2023-05-23T04:03:29;100946.09;;;11.15;75.01
77011;BME280;65945;53.148;17.956;2023-05-23T04:05:59;100946.96;;;11.29;74.67
77011;BME280;65945;53.148;17.956;2023-05-23T04:08:26;100945.47;;;11.41;74.30
77011;BME280;65945;53.148;17.956;2023-05-23T04:10:54;100946.73;;;11.51;74.24
77011;BME280;65945;53.148;17.956;2023-05-23T04:13:23;100944.36;;;11.62;73.85
77011;BME280;65945;53.148;17.956;2023-05-23T04:15:52;100943.16;;;11.72;73.52
77011;BME280;65945;53.148;17.956;2023-05-23T04:18:21;100939.26;;;11.83;73.51
77011;BME280;65945;53.148;17.956;2023-05-23T04:20:49;100940.25;;;11.91;73.32
77011;BME280;65945;53.148;17.956;2023-05-23T04:23:16;100938.11;;;11.98;73.17
77011;BME280;65945;53.148;17.956;2023-05-23T04:25:46;100934.03;;;12.04;73.07
77011;BME280;65945;53.148;17.956;2023-05-23T04:28:33;100934.95;;;12.13;72.84
77011;BME280;65945;53.148;17.956;2023-05-23T04:31:00;100938.26;;;12.21;72.89
77011;BME280;65945;53.148;17.956;2023-05-23T04:33:31;100939.34;;;12.29;72.44
77011;BME280;65945;53.148;17.956;2023-05-23T04:35:59;100936.22;;;12.38;72.58
77011;BME280;65945;53.148;17.956;2023-05-23T04:38:27;100938.31;;;12.47;72.35
77011;BME280;65945;53.148;17.956;2023-05-23T04:40:54;100941.41;;;12.58;71.98
77011;BME280;65945;53.148;17.956;2023-05-23T04:43:39;100943.14;;;12.68;71.81
77011;BME280;65945;53.148;17.956;2023-05-23T04:46:30;100944.44;;;12.81;71.62
77011;BME280;65945;53.148;17.956;2023-05-23T04:49:13;100941.13;;;12.94;71.28
77011;BME280;65945;53.148;17.956;2023-05-23T04:51:40;100941.16;;;13.08;71.26
77011;BME280;65945;53.148;17.956;2023-05-23T04:54:18;100937.96;;;13.24;70.81
77011;BME280;65945;53.148;17.956;2023-05-23T04:56:45;100940.08;;;13.37;70.27
77011;BME280;65945;53.148;17.956;2023-05-23T04:59:11;100938.65;;;13.49;70.24
77011;BME280;65945;53.148;17.956;2023-05-23T05:01:38;100939.80;;;13.61;70.03
77011;BME280;65945;53.148;17.956;2023-05-23T05:04:07;100938.45;;;13.74;69.81
77011;BME280;65945;53.148;17.956;2023-05-23T05:06:34;100937.23;;;13.87;69.61
77011;BME280;65945;53.148;17.956;2023-05-23T05:09:01;100933.44;;;14.02;69.40
77011;BME280;65945;53.148;17.956;2023-05-23T05:11:27;100933.39;;;14.17;68.98
77011;BME280;65945;53.148;17.956;2023-05-23T05:13:54;100930.52;;;14.34;69.01
77011;BME280;65945;53.148;17.956;2023-05-23T05:16:21;100929.80;;;14.52;68.39
77011;BME280;65945;53.148;17.956;2023-05-23T05:18:49;100930.22;;;14.71;67.92
77011;BME280;65945;53.148;17.956;2023-05-23T05:21:18;100928.17;;;14.92;67.46
77011;BME280;65945;53.148;17.956;2023-05-23T05:23:45;100925.59;;;15.16;67.11
77011;BME280;65945;53.148;17.956;2023-05-23T05:26:12;100919.60;;;15.39;66.00
77011;BME280;65945;53.148;17.956;2023-05-23T05:28:39;100916.44;;;15.60;65.65
77011;BME280;65945;53.148;17.956;2023-05-23T05:31:07;100916.92;;;15.83;65.53
77011;BME280;65945;53.148;17.956;2023-05-23T05:33:35;100912.09;;;16.06;64.83
77011;BME280;65945;53.148;17.956;2023-05-23T05:36:11;100909.16;;;16.29;64.08
77011;BME280;65945;53.148;17.956;2023-05-23T05:38:38;100908.23;;;16.52;63.23
77011;BME280;65945;53.148;17.956;2023-05-23T05:41:05;100906.86;;;16.73;63.08
77011;BME280;65945;53.148;17.956;2023-05-23T05:43:35;100903.39;;;16.93;61.67
77011;BME280;65945;53.148;17.956;2023-05-23T05:46:02;100904.46;;;17.14;61.15
77011;BME280;65945;53.148;17.956;2023-05-23T05:48:29;100905.30;;;17.34;60.54
77011;BME280;65945;53.148;17.956;2023-05-23T05:51:00;100898.62;;;17.51;60.07
77011;BME280;65945;53.148;17.956;2023-05-23T05:53:31;100905.05;;;17.72;59.79
77011;BME280;65945;53.148;17.956;2023-05-23T05:55:58;100901.66;;;17.91;59.03
77011;BME280;65945;53.148;17.956;2023-05-23T05:58:25;100900.66;;;18.06;58.23
77011;BME280;65945;53.148;17.956;2023-05-23T06:00:57;100900.05;;;18.22;57.45
77011;BME280;65945;53.148;17.956;2023-05-23T06:03:24;100896.18;;;18.34;57.56
77011;BME280;65945;53.148;17.956;2023-05-23T06:05:54;100895.58;;;18.48;57.14
77011;BME280;65945;53.148;17.956;2023-05-23T06:08:21;100895.55;;;18.61;56.68
77011;BME280;65945;53.148;17.956;2023-05-23T06:10:48;100891.13;;;18.74;55.65
77011;BME280;65945;53.148;17.956;2023-05-23T06:13:15;100894.27;;;18.80;54.69
77011;BME280;65945;53.148;17.956;2023-05-23T06:15:44;100891.98;;;18.84;55.42
77011;BME280;65945;53.148;17.956;2023-05-23T06:18:11;100897.77;;;18.95;55.05
77011;BME280;65945;53.148;17.956;2023-05-23T06:20:38;100895.64;;;19.08;55.01
77011;BME280;65945;53.148;17.956;2023-05-23T06:23:07;100891.76;;;19.25;54.50
77011;BME280;65945;53.148;17.956;2023-05-23T06:25:34;100885.77;;;19.37;52.24
77011;BME280;65945;53.148;17.956;2023-05-23T06:28:01;100880.35;;;19.43;52.84
77011;BME280;65945;53.148;17.956;2023-05-23T06:30:29;100879.41;;;19.52;52.88
77011;BME280;65945;53.148;17.956;2023-05-23T06:32:56;100877.04;;;19.62;52.68
77011;BME280;65945;53.148;17.956;2023-05-23T06:35:25;100874.04;;;19.74;50.97
77011;BME280;65945;53.148;17.956;2023-05-23T06:37:51;100871.61;;;19.88;51.58
77011;BME280;65945;53.148;17.956;2023-05-23T06:40:18;100870.92;;;20.04;50.59
77011;BME280;65945;53.148;17.956;2023-05-23T06:42:45;100872.59;;;20.26;51.19
77011;BME280;65945;53.148;17.956;2023-05-23T06:45:38;100870.86;;;20.53;50.03
77011;BME280;65945;53.148;17.956;2023-05-23T06:48:04;100870.94;;;20.77;49.91
77011;BME280;65945;53.148;17.956;2023-05-23T06:50:32;100867.61;;;21.01;48.53
77011;BME280;65945;53.148;17.956;2023-05-23T06:52:59;100863.77;;;21.20;47.36
77011;BME280;65945;53.148;17.956;2023-05-23T06:55:26;100859.08;;;21.37;47.77
77011;BME280;65945;53.148;17.956;2023-05-23T06:57:54;100859.33;;;21.56;47.98
77011;BME280;65945;53.148;17.956;2023-05-23T07:00:22;100860.38;;;21.73;46.70
77011;BME280;65945;53.148;17.956;2023-05-23T07:03:02;100859.23;;;21.89;46.45
77011;BME280;65945;53.148;17.956;2023-05-23T07:05:29;100856.38;;;21.98;46.09
77011;BME280;65945;53.148;17.956;2023-05-23T07:07:59;100858.08;;;22.06;45.01
77011;BME280;65945;53.148;17.956;2023-05-23T07:10:25;100853.38;;;22.11;45.39
77011;BME280;65945;53.148;17.956;2023-05-23T07:12:52;100855.02;;;22.17;44.23
77011;BME280;65945;53.148;17.956;2023-05-23T07:15:20;100850.82;;;22.21;45.08
77011;BME280;65945;53.148;17.956;2023-05-23T07:17:55;100846.91;;;22.28;43.68
77011;BME280;65945;53.148;17.956;2023-05-23T07:20:22;100847.21;;;22.28;43.77
77011;BME280;65945;53.148;17.956;2023-05-23T07:22:50;100849.27;;;22.33;43.84
77011;BME280;65945;53.148;17.956;2023-05-23T07:25:17;100844.20;;;22.40;43.96
77011;BME280;65945;53.148;17.956;2023-05-23T07:27:44;100844.63;;;22.48;43.54
77011;BME280;65945;53.148;17.956;2023-05-23T07:30:11;100844.66;;;22.58;43.54
77011;BME280;65945;53.148;17.956;2023-05-23T07:32:38;100842.08;;;22.68;42.42
77011;BME280;65945;53.148;17.956;2023-05-23T07:35:05;100841.18;;;22.75;41.68
77011;BME280;65945;53.148;17.956;2023-05-23T07:37:32;100836.96;;;22.73;41.09
77011;BME280;65945;53.148;17.956;2023-05-23T07:39:59;100839.46;;;22.75;41.46
77011;BME280;65945;53.148;17.956;2023-05-23T07:42:26;100836.58;;;22.76;39.25
77011;BME280;65945;53.148;17.956;2023-05-23T07:44:53;100834.46;;;22.76;39.82
77011;BME280;65945;53.148;17.956;2023-05-23T07:47:20;100835.71;;;22.85;39.06
77011;BME280;65945;53.148;17.956;2023-05-23T07:49:47;100833.63;;;22.87;39.22
77011;BME280;65945;53.148;17.956;2023-05-23T07:52:15;100832.40;;;22.92;38.99
77011;BME280;65945;53.148;17.956;2023-05-23T07:54:42;100829.66;;;22.96;39.49
77011;BME280;65945;53.148;17.956;2023-05-23T07:57:09;100830.86;;;23.03;39.63
77011;BME280;65945;53.148;17.956;2023-05-23T07:59:37;100830.58;;;23.12;38.93
77011;BME280;65945;53.148;17.956;2023-05-23T08:02:04;100830.39;;;23.19;38.66
77011;BME280;65945;53.148;17.956;2023-05-23T08:04:31;100827.98;;;23.24;37.95
77011;BME280;65945;53.148;17.956;2023-05-23T08:06:57;100829.41;;;23.32;38.20
77011;BME280;65945;53.148;17.956;2023-05-23T08:09:27;100830.52;;;23.45;37.91
77011;BME280;65945;53.148;17.956;2023-05-23T08:11:55;100830.29;;;23.56;37.18
77011;BME280;65945;53.148;17.956;2023-05-23T08:14:23;100829.70;;;23.68;37.21
77011;BME280;65945;53.148;17.956;2023-05-23T08:17:12;100818.97;;;23.88;37.09
77011;BME280;65945;53.148;17.956;2023-05-23T08:19:39;100816.48;;;24.06;35.93
77011;BME280;65945;53.148;17.956;2023-05-23T08:22:06;100815.33;;;24.25;35.89
77011;BME280;65945;53.148;17.956;2023-05-23T08:24:33;100809.95;;;24.42;35.39
77011;BME280;65945;53.148;17.956;2023-05-23T08:27:00;100807.10;;;24.57;35.08
77011;BME280;65945;53.148;17.956;2023-05-23T08:29:26;100805.90;;;24.70;34.82
77011;BME280;65945;53.148;17.956;2023-05-23T08:31:53;100802.07;;;24.72;33.68
77011;BME280;65945;53.148;17.956;2023-05-23T08:34:20;100802.34;;;24.76;34.43
77011;BME280;65945;53.148;17.956;2023-05-23T08:36:48;100800.50;;;24.77;34.08
77011;BME280;65945;53.148;17.956;2023-05-23T08:39:17;100798.02;;;24.69;33.08
77011;BME280;65945;53.148;17.956;2023-05-23T08:42:04;100794.03;;;24.57;33.90
77011;BME280;65945;53.148;17.956;2023-05-23T08:44:31;100797.80;;;24.59;33.87
77011;BME280;65945;53.148;17.956;2023-05-23T08:47:03;100794.54;;;24.63;33.77
77011;BME280;65945;53.148;17.956;2023-05-23T08:49:47;100799.40;;;24.65;33.34
77011;BME280;65945;53.148;17.956;2023-05-23T08:52:16;100798.53;;;24.67;32.67
77011;BME280;65945;53.148;17.956;2023-05-23T08:54:45;100798.30;;;24.63;32.48
77011;BME280;65945;53.148;17.956;2023-05-23T08:57:13;100797.73;;;24.62;32.93
77011;BME280;65945;53.148;17.956;2023-05-23T08:59:42;100798.11;;;24.69;32.80
77011;BME280;65945;53.148;17.956;2023-05-23T09:02:10;100795.75;;;24.75;32.48
77011;BME280;65945;53.148;17.956;2023-05-23T09:04:40;100792.27;;;24.73;31.70
77011;BME280;65945;53.148;17.956;2023-05-23T09:07:17;100795.18;;;24.77;32.53
77011;BME280;65945;53.148;17.956;2023-05-23T09:09:45;100794.59;;;24.90;32.34
77011;BME280;65945;53.148;17.956;2023-05-23T09:12:13;100793.02;;;25.03;31.91
77011;BME280;65945;53.148;17.956;2023-05-23T09:14:41;100793.84;;;25.15;31.57
77011;BME280;65945;53.148;17.956;2023-05-23T09:17:08;100799.77;;;25.18;30.91
77011;BME280;65945;53.148;17.956;2023-05-23T09:19:39;100793.77;;;25.17;31.16
77011;BME280;65945;53.148;17.956;2023-05-23T09:22:22;100791.43;;;25.19;31.10
77011;BME280;65945;53.148;17.956;2023-05-23T09:25:00;100797.77;;;25.21;30.86
77011;BME280;65945;53.148;17.956;2023-05-23T09:27:28;100796.08;;;25.11;30.59
77011;BME280;65945;53.148;17.956;2023-05-23T09:29:55;100793.83;;;25.02;30.70
77011;BME280;65945;53.148;17.956;2023-05-23T09:32:25;100790.56;;;24.93;31.09
77011;BME280;65945;53.148;17.956;2023-05-23T09:35:07;100794.55;;;24.88;31.39
77011;BME280;65945;53.148;17.956;2023-05-23T09:37:42;100791.70;;;24.87;30.32
77011;BME280;65945;53.148;17.956;2023-05-23T09:40:13;100794.88;;;24.84;30.36
77011;BME280;65945;53.148;17.956;2023-05-23T09:42:45;100785.25;;;24.86;30.38
77011;BME280;65945;53.148;17.956;2023-05-23T09:45:14;100785.21;;;24.98;30.94
77011;BME280;65945;53.148;17.956;2023-05-23T09:47:51;100786.89;;;25.19;30.79
77011;BME280;65945;53.148;17.956;2023-05-23T09:50:19;100785.48;;;25.32;30.15
77011;BME280;65945;53.148;17.956;2023-05-23T09:52:46;100786.06;;;25.38;30.14
77011;BME280;65945;53.148;17.956;2023-05-23T09:55:13;100778.70;;;25.49;30.41
77011;BME280;65945;53.148;17.956;2023-05-23T09:57:41;100781.33;;;25.62;30.07
77011;BME280;65945;53.148;17.956;2023-05-23T10:00:09;100782.55;;;25.75;29.80
77011;BME280;65945;53.148;17.956;2023-05-23T10:05:32;100782.92;;;26.06;29.89
77011;BME280;65945;53.148;17.956;2023-05-23T10:08:00;100783.71;;;26.25;29.67
77011;BME280;65945;53.148;17.956;2023-05-23T10:10:31;100778.57;;;26.43;29.49
77011;BME280;65945;53.148;17.956;2023-05-23T10:13:02;100784.95;;;26.53;29.42
77011;BME280;65945;53.148;17.956;2023-05-23T10:15:35;100783.55;;;26.48;29.34
77011;BME280;65945;53.148;17.956;2023-05-23T10:18:20;100785.02;;;26.37;29.43
77011;BME280;65945;53.148;17.956;2023-05-23T10:20:53;100787.52;;;26.33;29.74
77011;BME280;65945;53.148;17.956;2023-05-23T10:23:23;100793.19;;;26.38;29.88
77011;BME280;65945;53.148;17.956;2023-05-23T10:25:50;100784.16;;;26.50;29.34
77011;BME280;65945;53.148;17.956;2023-05-23T10:28:18;100783.17;;;26.49;29.04
77011;BME280;65945;53.148;17.956;2023-05-23T10:30:45;100779.27;;;26.32;29.03
77011;BME280;65945;53.148;17.956;2023-05-23T10:33:13;100783.00;;;26.29;29.79
77011;BME280;65945;53.148;17.956;2023-05-23T10:38:39;100773.04;;;26.42;29.84
77011;BME280;65945;53.148;17.956;2023-05-23T10:41:26;100771.05;;;26.59;29.37
77011;BME280;65945;53.148;17.956;2023-05-23T10:44:03;100772.67;;;26.84;28.87
77011;BME280;65945;53.148;17.956;2023-05-23T10:46:52;100777.03;;;26.86;28.33
77011;BME280;65945;53.148;17.956;2023-05-23T10:49:20;100771.31;;;26.72;28.41
77011;BME280;65945;53.148;17.956;2023-05-23T10:51:50;100769.55;;;26.56;28.76
77011;BME280;65945;53.148;17.956;2023-05-23T10:54:18;100771.27;;;26.43;28.83
77011;BME280;65945;53.148;17.956;2023-05-23T10:57:02;100768.27;;;26.25;28.44
77011;BME280;65945;53.148;17.956;2023-05-23T10:59:29;100764.40;;;25.90;28.75
77011;BME280;65945;53.148;17.956;2023-05-23T11:01:56;100759.47;;;25.70;29.37
77011;BME280;65945;53.148;17.956;2023-05-23T11:04:26;100762.92;;;25.64;29.46
77011;BME280;65945;53.148;17.956;2023-05-23T11:06:54;100762.17;;;25.61;29.21
77011;BME280;65945;53.148;17.956;2023-05-23T11:09:22;100761.88;;;25.57;29.23
77011;BME280;65945;53.148;17.956;2023-05-23T11:19:39;100748.50;;;25.54;29.44
77011;BME280;65945;53.148;17.956;2023-05-23T11:22:21;100751.09;;;25.48;29.58
77011;BME280;65945;53.148;17.956;2023-05-23T11:24:53;100753.09;;;25.41;29.27
77011;BME280;65945;53.148;17.956;2023-05-23T11:27:33;100750.10;;;25.28;29.28
77011;BME280;65945;53.148;17.956;2023-05-23T11:30:06;100754.68;;;25.16;29.48
77011;BME280;65945;53.148;17.956;2023-05-23T11:32:33;100748.88;;;25.06;29.66
77011;BME280;65945;53.148;17.956;2023-05-23T11:35:03;100750.38;;;24.97;29.68
77011;BME280;65945;53.148;17.956;2023-05-23T11:37:30;100753.31;;;24.91;29.97
77011;BME280;65945;53.148;17.956;2023-05-23T11:39:58;100748.20;;;24.84;30.06
77011;BME280;65945;53.148;17.956;2023-05-23T11:42:24;100744.04;;;24.75;30.12
77011;BME280;65945;53.148;17.956;2023-05-23T11:44:52;100745.56;;;24.67;30.27
77011;BME280;65945;53.148;17.956;2023-05-23T11:47:19;100743.48;;;24.61;30.49
77011;BME280;65945;53.148;17.956;2023-05-23T11:49:46;100739.89;;;24.52;30.24
77011;BME280;65945;53.148;17.956;2023-05-23T11:52:14;100737.25;;;24.33;30.30
77011;BME280;65945;53.148;17.956;2023-05-23T11:54:41;100737.08;;;24.18;30.43
77011;BME280;65945;53.148;17.956;2023-05-23T11:57:10;100736.63;;;24.08;31.05
77011;BME280;65945;53.148;17.956;2023-05-23T11:59:37;100734.79;;;23.99;30.96
77011;BME280;65945;53.148;17.956;2023-05-23T12:02:05;100736.20;;;23.90;30.93
77011;BME280;65945;53.148;17.956;2023-05-23T12:04:34;100734.05;;;23.85;30.70
77011;BME280;65945;53.148;17.956;2023-05-23T12:07:03;100739.63;;;23.78;30.84
77011;BME280;65945;53.148;17.956;2023-05-23T12:09:30;100734.42;;;23.75;30.82
77011;BME280;65945;53.148;17.956;2023-05-23T12:11:58;100737.43;;;23.74;30.88
77011;BME280;65945;53.148;17.956;2023-05-23T12:14:27;100737.36;;;23.74;31.02
77011;BME280;65945;53.148;17.956;2023-05-23T12:16:54;100734.92;;;23.77;31.28
77011;BME280;65945;53.148;17.956;2023-05-23T12:19:21;100729.73;;;23.78;31.20
77011;BME280;65945;53.148;17.956;2023-05-23T12:21:48;100727.95;;;23.82;31.29
77011;BME280;65945;53.148;17.956;2023-05-23T12:24:19;100730.00;;;23.89;31.29
77011;BME280;65945;53.148;17.956;2023-05-23T12:26:57;100731.83;;;23.96;31.35
77011;BME280;65945;53.148;17.956;2023-05-23T12:29:32;100726.41;;;24.00;31.13
77011;BME280;65945;53.148;17.956;2023-05-23T12:32:02;100726.73;;;24.02;31.35
77011;BME280;65945;53.148;17.956;2023-05-23T12:34:29;100725.97;;;24.08;31.38
77011;BME280;65945;53.148;17.956;2023-05-23T12:36:56;100723.45;;;24.14;31.49
77011;BME280;65945;53.148;17.956;2023-05-23T12:39:25;100728.70;;;24.20;31.47
77011;BME280;65945;53.148;17.956;2023-05-23T12:42:06;100728.90;;;24.26;31.41
77011;BME280;65945;53.148;17.956;2023-05-23T12:44:34;100726.14;;;24.31;30.85
77011;BME280;65945;53.148;17.956;2023-05-23T12:47:02;100724.15;;;24.35;30.86
77011;BME280;65945;53.148;17.956;2023-05-23T12:49:29;100722.82;;;24.42;30.53
77011;BME280;65945;53.148;17.956;2023-05-23T12:51:55;100718.20;;;24.47;30.19
77011;BME280;65945;53.148;17.956;2023-05-23T12:54:22;100711.90;;;24.51;30.68
77011;BME280;65945;53.148;17.956;2023-05-23T12:56:49;100717.77;;;24.57;30.66
77011;BME280;65945;53.148;17.956;2023-05-23T12:59:16;100715.36;;;24.61;30.60
77011;BME280;65945;53.148;17.956;2023-05-23T13:01:42;100713.38;;;24.62;30.52
77011;BME280;65945;53.148;17.956;2023-05-23T13:04:09;100709.80;;;24.55;29.91
77011;BME280;65945;53.148;17.956;2023-05-23T13:06:36;100711.42;;;24.46;30.40
77011;BME280;65945;53.148;17.956;2023-05-23T13:09:02;100710.54;;;24.40;30.22
77011;BME280;65945;53.148;17.956;2023-05-23T13:11:29;100709.89;;;24.32;30.28
77011;BME280;65945;53.148;17.956;2023-05-23T13:13:56;100704.14;;;24.26;30.27